Time;durP1;ratioP1;P1;durP2;ratioP2;P2;SDS_P1;SDS_P2;PMS_P1;PMS_P2;Temp;Humidity;BMP_temperature;BMP_pressure;BME280_temperature;BME280_humidity;BME280_pressure;Samples;Min_cycle;Max_cycle;Signal;HPM_P1;HPM_P2
2021/07/11 00:02:09;;;;;;;4.05;3.08;;;15.70;99.90;;;16.15;100.00;95169.00;2242450;55;26629;-51
2021/07/11 00:07:53;;;;;;;4.50;2.78;;;15.60;99.90;;;16.07;100.00;95157.00;2404399;55;33151;-50
2021/07/11 00:10:39;;;;;;;3.12;2.60;;;15.50;99.90;;;15.90;100.00;95177.00;2134000;58;26858;-50
2021/07/11 00:13:26;;;;;;;2.65;2.37;;;15.40;99.90;;;15.78;100.00;95191.00;2339721;57;26885;-50
2021/07/11 00:19:09;;;;;;;3.40;2.30;;;15.10;99.90;;;15.65;100.00;95176.00;2483026;52;33875;-50
2021/07/11 00:21:55;;;;;;;4.15;2.10;;;15.00;99.90;;;15.43;100.00;95193.00;2242377;53;26619;-50
2021/07/11 00:24:44;;;;;;;3.03;2.15;;;14.90;99.90;;;15.40;100.00;95201.00;2548778;52;26776;-51
2021/07/11 00:27:30;;;;;;;2.30;1.87;;;14.80;99.90;;;15.28;100.00;95201.00;2323443;53;26641;-50
2021/07/11 00:30:18;;;;;;;1.90;1.70;;;14.80;99.90;;;15.24;100.00;95213.00;2570055;52;26841;-49
2021/07/11 00:33:05;;;;;;;2.70;1.75;;;14.70;99.90;;;15.11;100.00;95218.00;2324787;53;26866;-50
2021/07/11 00:35:51;;;;;;;2.97;1.80;;;14.50;99.90;;;14.83;100.00;95212.00;2570896;52;26638;-51
2021/07/11 00:38:38;;;;;;;3.60;1.50;;;14.30;99.90;;;14.62;100.00;95232.00;2324405;53;26744;-51
2021/07/11 00:41:24;;;;;;;1.40;1.30;;;14.10;99.90;;;14.46;100.00;95228.00;2570116;52;27231;-52
2021/07/11 00:44:11;;;;;;;2.40;1.80;;;14.00;99.90;;;14.34;100.00;95226.00;2569938;52;26775;-51
2021/07/11 00:46:57;;;;;;;1.80;1.70;;;13.90;99.90;;;14.32;100.00;95238.00;2324091;53;26649;-51
2021/07/11 00:49:44;;;;;;;6.20;1.73;;;13.90;99.90;;;14.37;100.00;95241.00;2569951;52;26879;-49
2021/07/11 00:52:31;;;;;;;2.92;1.50;;;13.90;99.90;;;14.34;100.00;95248.00;2323726;53;26730;-51
2021/07/11 00:55:17;;;;;;;1.87;1.55;;;13.80;99.90;;;14.27;100.00;95241.00;2570436;52;26565;-51
2021/07/11 00:58:04;;;;;;;2.50;2.03;;;13.80;99.90;;;14.24;100.00;95229.00;2323361;53;26679;-51
2021/07/11 01:00:58;;;;;;;2.80;1.80;;;13.80;99.90;;;14.16;100.00;95234.00;2570471;52;27295;-51
2021/07/11 01:03:52;;;;;;;1.92;1.73;;;13.70;99.90;;;14.20;100.00;95234.00;2323574;53;26639;-50
2021/07/11 01:06:42;;;;;;;2.65;1.95;;;13.70;99.90;;;14.17;100.00;95230.00;2323896;53;27423;-51
2021/07/11 01:09:34;;;;;;;2.63;1.60;;;13.70;99.90;;;14.15;100.00;95245.00;2570871;52;26719;-51
2021/07/11 01:12:26;;;;;;;3.10;1.90;;;13.70;99.90;;;14.15;100.00;95250.00;2324674;53;26638;-51
2021/07/11 01:15:13;;;;;;;3.13;1.63;;;13.70;99.90;;;14.12;100.00;95249.00;2570700;52;26605;-52
2021/07/11 01:18:03;;;;;;;1.83;1.70;;;13.70;99.90;;;14.19;100.00;95254.00;2324555;53;27040;-50
2021/07/11 01:20:55;;;;;;;1.67;1.50;;;13.70;99.90;;;14.13;100.00;95257.00;2570868;52;27060;-50
2021/07/11 01:26:46;;;;;;;1.87;1.67;;;13.70;99.90;;;14.13;100.00;95226.00;2394490;55;34776;-50
2021/07/11 01:32:31;;;;;;;2.90;1.65;;;13.70;99.90;;;14.19;100.00;95222.00;2460488;53;33772;-51
2021/07/11 01:35:18;;;;;;;2.03;1.70;;;13.60;99.90;;;14.00;100.00;95251.00;2435191;55;26761;-50
2021/07/11 01:41:03;;;;;;;1.60;1.50;;;13.60;99.90;;;14.19;100.00;95227.00;2427836;55;34561;-50
2021/07/11 01:43:54;;;;;;;2.07;1.60;;;13.60;99.90;;;14.02;100.00;95264.00;2185191;55;26495;-50
2021/07/11 01:46:41;;;;;;;3.53;1.60;;;13.60;99.90;;;14.06;100.00;95267.00;2191863;56;26183;-50
2021/07/11 01:49:28;;;;;;;2.00;1.50;;;13.60;99.90;;;14.02;100.00;95270.00;2209492;55;26750;-52
2021/07/11 01:52:15;;;;;;;2.27;1.90;;;13.60;99.90;;;14.03;100.00;95268.00;2438530;55;26549;-50
2021/07/11 01:57:57;;;;;;;2.03;1.57;;;13.60;99.90;;;14.06;100.00;95239.00;2458015;54;34511;-50
2021/07/11 02:00:44;;;;;;;1.52;1.42;;;13.60;99.90;;;13.97;100.00;95267.00;2432637;54;26670;-50
2021/07/11 02:03:30;;;;;;;2.37;1.58;;;13.60;99.90;;;13.97;100.00;95275.00;2217764;54;26154;-50
2021/07/11 02:06:17;;;;;;;2.70;1.60;;;13.60;99.90;;;13.97;100.00;95278.00;2441665;54;26741;-51
2021/07/11 02:09:06;;;;;;;2.55;1.70;;;13.60;99.90;;;13.96;100.00;95273.00;2214306;54;27058;-51
2021/07/11 02:11:54;;;;;;;5.05;1.70;;;13.60;99.90;;;14.03;100.00;95273.00;2434614;55;26736;-51
2021/07/11 02:14:43;;;;;;;1.67;1.40;;;13.60;99.90;;;14.02;100.00;95270.00;2233628;55;26617;-52
2021/07/11 02:17:30;;;;;;;1.53;1.43;;;13.60;99.90;;;14.04;100.00;95272.00;2237945;56;26976;-49
2021/07/11 02:20:18;;;;;;;1.73;1.43;;;13.60;99.90;;;14.11;100.00;95267.00;2212940;55;27030;-50
2021/07/11 02:26:02;;;;;;;4.18;1.80;;;13.60;99.90;;;14.16;100.00;95236.00;2451908;53;34353;-50
2021/07/11 02:28:51;;;;;;;2.27;1.50;;;13.60;99.90;;;14.03;100.00;95263.00;2412245;54;26198;-50
2021/07/11 02:31:41;;;;;;;1.70;1.30;;;13.50;99.90;;;13.99;100.00;95254.00;2183534;56;26821;-50
2021/07/11 02:34:27;;;;;;;1.92;1.25;;;13.50;99.90;;;13.97;100.00;95258.00;2193359;56;26786;-51
2021/07/11 02:37:18;;;;;;;3.33;1.50;;;13.50;99.90;;;13.94;100.00;95256.00;2411573;55;27173;-50
2021/07/11 02:40:08;;;;;;;1.60;1.30;;;13.50;99.90;;;13.89;100.00;95243.00;2435538;55;27142;-51
2021/07/11 02:42:58;;;;;;;1.97;1.10;;;13.40;99.90;;;13.85;100.00;95250.00;2214142;55;26487;-51
2021/07/11 02:45:46;;;;;;;1.23;1.13;;;13.40;99.90;;;13.78;100.00;95257.00;2227818;56;26723;-49
2021/07/11 02:48:34;;;;;;;1.90;1.10;;;13.30;99.90;;;13.73;100.00;95244.00;2442048;54;26930;-50
2021/07/11 02:51:25;;;;;;;1.50;0.93;;;13.20;99.90;;;13.57;100.00;95240.00;2443551;55;26136;-50
2021/07/11 02:54:18;;;;;;;1.40;0.90;;;13.20;99.90;;;13.50;100.00;95232.00;2218594;56;26718;-51
2021/07/11 03:00:06;;;;;;;2.50;0.90;;;13.10;99.90;;;13.50;100.00;95211.00;2490514;54;33585;-51
2021/07/11 03:02:55;;;;;;;1.53;1.03;;;13.00;99.90;;;13.39;100.00;95228.00;2235054;55;27335;-52
2021/07/11 03:05:41;;;;;;;3.03;1.00;;;13.00;99.90;;;13.39;100.00;95246.00;2452448;54;26092;-51
2021/07/11 03:08:28;;;;;;;0.80;0.80;;;13.00;99.90;;;13.38;100.00;95237.00;2228641;55;26599;-51
2021/07/11 03:11:15;;;;;;;0.80;0.73;;;13.00;99.90;;;13.34;100.00;95241.00;2458006;54;26645;-51
2021/07/11 03:14:02;;;;;;;1.20;0.90;;;13.00;99.90;;;13.36;100.00;95233.00;2227888;55;27021;-51
2021/07/11 03:16:54;;;;;;;1.93;0.80;;;13.00;99.90;;;13.35;100.00;95238.00;2228694;55;26154;-51
2021/07/11 03:19:42;;;;;;;0.80;0.70;;;12.90;99.90;;;13.29;100.00;95233.00;2454282;54;26648;-50
2021/07/11 03:22:33;;;;;;;1.20;0.90;;;13.00;99.90;;;13.36;100.00;95239.00;2226467;55;27136;-51
2021/07/11 03:25:20;;;;;;;1.20;0.90;;;13.00;99.90;;;13.39;100.00;95234.00;2227132;55;27380;-51
2021/07/11 03:28:07;;;;;;;1.35;0.93;;;13.00;99.90;;;13.46;100.00;95240.00;2459263;54;26217;-50
2021/07/11 03:30:55;;;;;;;1.00;0.90;;;13.00;99.90;;;13.40;100.00;95243.00;2459146;54;26669;-50
2021/07/11 03:33:46;;;;;;;2.70;1.00;;;13.00;99.90;;;13.43;100.00;95239.00;2237957;55;27063;-51
2021/07/11 03:36:34;;;;;;;1.53;0.93;;;13.00;99.90;;;13.52;100.00;95245.00;2220623;55;26683;-51
2021/07/11 03:39:21;;;;;;;2.80;1.03;;;13.00;99.90;;;13.44;100.00;95241.00;2458165;55;26605;-51
2021/07/11 03:42:10;;;;;;;1.10;0.93;;;12.90;99.90;;;13.39;100.00;95241.00;2453599;54;26848;-51
2021/07/11 03:44:58;;;;;;;2.30;0.90;;;13.00;99.90;;;13.46;100.00;95231.00;2453402;54;26626;-51
2021/07/11 03:47:51;;;;;;;1.37;0.90;;;13.00;99.90;;;13.51;100.00;95225.00;2457172;54;26690;-51
2021/07/11 03:53:39;;;;;;;1.92;1.42;;;12.90;99.90;;;13.53;100.00;95192.00;2456080;53;33853;-51
2021/07/11 03:56:28;;;;;;;2.57;1.00;;;13.00;99.90;;;13.55;100.00;95220.00;2278955;54;26803;-51
2021/07/11 03:59:16;;;;;;;2.37;0.90;;;13.10;99.90;;;13.55;100.00;95219.00;2530868;53;26651;-51
2021/07/11 04:02:06;;;;;;;5.03;1.00;;;13.00;99.90;;;13.43;100.00;95224.00;2290839;54;27183;-51
2021/07/11 04:04:54;;;;;;;0.93;0.87;;;13.00;99.90;;;13.44;100.00;95226.00;2529865;53;26789;-51
2021/07/11 04:07:42;;;;;;;2.90;0.77;;;13.00;99.90;;;13.45;100.00;95228.00;2290344;54;26619;-51
2021/07/11 04:10:31;;;;;;;2.53;0.97;;;13.00;99.90;;;13.46;100.00;95221.00;2530301;53;26611;-52
2021/07/11 04:13:18;;;;;;;1.00;0.90;;;13.00;99.90;;;13.37;100.00;95219.00;2290869;54;26668;-51
2021/07/11 04:16:08;;;;;;;2.03;1.33;;;13.00;99.90;;;13.42;100.00;95214.00;2530536;53;26890;-51
2021/07/11 04:18:56;;;;;;;2.83;1.00;;;13.00;99.90;;;13.39;100.00;95226.00;2530357;53;26122;-52
2021/07/11 04:21:43;;;;;;;3.00;0.90;;;13.00;99.90;;;13.50;100.00;95227.00;2239715;55;27315;-53
2021/07/11 04:24:32;;;;;;;1.53;0.87;;;13.00;99.90;;;13.44;100.00;95226.00;2236556;54;26148;-52
2021/07/11 04:27:20;;;;;;;1.23;0.90;;;13.00;99.90;;;13.43;100.00;95222.00;2248929;54;26836;-51
2021/07/11 04:30:09;;;;;;;5.60;1.00;;;13.00;99.90;;;13.35;100.00;95227.00;2260803;54;26695;-51
2021/07/11 04:32:56;;;;;;;2.00;1.00;;;12.90;99.90;;;13.29;100.00;95224.00;2270005;54;27193;-51
2021/07/11 04:35:43;;;;;;;1.73;0.90;;;12.90;99.90;;;13.39;100.00;95222.00;2270362;54;26619;-51
2021/07/11 04:38:29;;;;;;;1.00;0.90;;;13.00;99.90;;;13.45;100.00;95232.00;2503899;53;26703;-51
2021/07/11 04:41:15;;;;;;;2.57;1.03;;;13.00;99.90;;;13.53;100.00;95221.00;2270024;54;27092;-52
2021/07/11 04:44:04;;;;;;;0.90;0.77;;;13.00;99.90;;;13.47;100.00;95233.00;2504105;53;26641;-51
2021/07/11 04:46:51;;;;;;;1.67;1.00;;;13.10;99.90;;;13.53;100.00;95237.00;2269095;54;27281;-52
2021/07/11 04:49:38;;;;;;;1.67;0.90;;;13.10;99.90;;;13.58;100.00;95226.00;2531093;53;27213;-53
2021/07/11 04:52:24;;;;;;;2.33;1.10;;;13.10;99.90;;;13.55;100.00;95230.00;2295980;54;26737;-51
2021/07/11 04:55:15;;;;;;;3.97;1.10;;;13.20;99.90;;;13.63;100.00;95232.00;2536400;53;26840;-51
2021/07/11 04:58:01;;;;;;;2.77;1.10;;;13.10;99.90;;;13.53;100.00;95242.00;2294538;54;26694;-52
2021/07/11 05:00:48;;;;;;;2.87;1.40;;;13.20;99.90;;;13.62;100.00;95236.00;2536833;53;26882;-51
2021/07/11 05:06:31;;;;;;;2.03;1.20;;;13.30;99.90;;;13.89;100.00;95209.00;2462418;54;33866;-52
2021/07/11 05:09:17;;;;;;;2.22;1.10;;;13.30;99.90;;;13.91;100.00;95239.00;2213677;55;27522;-52
2021/07/11 05:12:06;;;;;;;1.77;1.30;;;13.40;99.90;;;13.87;100.00;95237.00;2436565;55;26805;-51
2021/07/11 05:14:52;;;;;;;3.28;1.30;;;13.40;99.90;;;14.05;100.00;95242.00;2213565;55;27080;-51
2021/07/11 05:17:39;;;;;;;2.12;1.30;;;13.40;99.90;;;13.93;100.00;95234.00;2435927;55;26705;-53
2021/07/11 05:20:25;;;;;;;3.22;1.35;;;13.40;99.90;;;14.00;100.00;95242.00;2214483;55;26566;-52
2021/07/11 05:23:12;;;;;;;1.95;1.27;;;13.60;99.90;;;14.22;100.00;95231.00;2436770;55;27088;-51
2021/07/11 05:25:58;;;;;;;3.83;1.30;;;13.60;99.90;;;14.13;100.00;95233.00;2436931;55;26684;-51
2021/07/11 05:28:44;;;;;;;4.40;1.40;;;13.70;99.90;;;14.31;100.00;95231.00;2213850;55;27230;-51
2021/07/11 05:31:31;;;;;;;3.97;1.37;;;13.70;99.90;;;14.18;100.00;95232.00;2436355;55;26640;-52
2021/07/11 05:34:17;;;;;;;2.47;1.50;;;13.80;99.90;;;14.30;100.00;95235.00;2213993;55;26630;-52
2021/07/11 05:37:05;;;;;;;1.55;1.30;;;13.80;99.90;;;14.35;100.00;95233.00;2436540;54;26709;-52
2021/07/11 05:39:51;;;;;;;3.08;1.50;;;13.90;99.90;;;14.45;100.00;95229.00;2213373;55;26787;-51
2021/07/11 05:42:37;;;;;;;3.45;1.40;;;14.00;99.90;;;14.49;100.00;95227.00;2436207;54;26652;-51
2021/07/11 05:45:24;;;;;;;1.30;1.20;;;14.00;99.90;;;14.49;100.00;95217.00;2213654;55;27198;-51
2021/07/11 05:48:10;;;;;;;1.65;1.30;;;14.00;99.90;;;14.52;100.00;95219.00;2436336;54;26728;-51
2021/07/11 05:50:56;;;;;;;1.90;1.20;;;14.00;99.90;;;14.55;100.00;95218.00;2436764;55;27469;-51
2021/07/11 05:53:43;;;;;;;1.55;1.27;;;14.10;99.90;;;14.62;100.00;95205.00;2437064;55;26789;-51
2021/07/11 05:56:29;;;;;;;1.90;1.10;;;14.20;99.90;;;14.74;100.00;95206.00;2214537;55;26546;-51
2021/07/11 05:59:16;;;;;;;1.50;1.10;;;14.10;99.90;;;14.66;100.00;95203.00;2214542;55;27289;-51
2021/07/11 06:02:02;;;;;;;3.70;1.40;;;14.10;99.90;;;14.63;100.00;95210.00;2214339;55;27470;-51
2021/07/11 06:04:48;;;;;;;1.60;1.33;;;14.10;99.90;;;14.75;100.00;95210.00;2212479;55;26792;-51
2021/07/11 06:07:35;;;;;;;1.75;1.17;;;14.10;99.90;;;14.66;100.00;95214.00;2205572;55;26125;-51
2021/07/11 06:10:22;;;;;;;5.32;1.30;;;14.20;99.90;;;14.72;100.00;95219.00;2427850;55;26089;-52
2021/07/11 06:13:08;;;;;;;3.40;1.30;;;14.20;99.90;;;14.91;100.00;95223.00;2204719;55;27349;-51
2021/07/11 06:15:55;;;;;;;1.60;1.20;;;14.20;99.90;;;14.78;100.00;95228.00;2205497;55;27280;-51
2021/07/11 06:18:41;;;;;;;3.85;1.20;;;14.20;99.90;;;14.82;100.00;95225.00;2205049;56;27875;-51
2021/07/11 06:21:28;;;;;;;1.10;1.00;;;14.20;99.90;;;14.71;100.00;95222.00;2204010;55;27214;-52
2021/07/11 06:24:14;;;;;;;1.40;1.10;;;14.20;99.90;;;14.79;100.00;95219.00;2205426;55;26312;-51
2021/07/11 06:27:01;;;;;;;2.27;1.00;;;14.20;99.90;;;14.72;100.00;95219.00;2204258;55;26869;-51
2021/07/11 06:29:47;;;;;;;2.85;1.20;;;14.20;99.90;;;14.80;100.00;95221.00;2206217;55;26153;-51
2021/07/11 06:32:33;;;;;;;2.42;1.20;;;14.20;99.90;;;14.79;100.00;95220.00;2204831;56;26890;-51
2021/07/11 06:35:22;;;;;;;2.92;1.10;;;14.20;99.90;;;14.75;100.00;95216.00;2204997;55;27119;-51
2021/07/11 06:38:08;;;;;;;1.30;1.12;;;14.30;99.90;;;14.82;100.00;95232.00;2425572;55;26672;-52
2021/07/11 06:40:54;;;;;;;1.60;1.50;;;14.40;99.90;;;14.97;100.00;95233.00;2204848;55;26635;-51
2021/07/11 06:43:41;;;;;;;1.98;1.00;;;14.50;99.90;;;15.13;100.00;95232.00;2205060;55;26716;-53
2021/07/11 06:46:27;;;;;;;2.60;1.10;;;14.50;99.90;;;15.04;100.00;95232.00;2426453;55;27010;-50
2021/07/11 06:52:11;;;;;;;2.60;1.08;;;14.50;99.90;;;15.11;100.00;95219.00;2540106;53;34339;-51
2021/07/11 06:54:57;;;;;;;3.50;1.20;;;14.50;99.90;;;14.97;100.00;95233.00;2505492;53;26169;-53
2021/07/11 06:57:44;;;;;;;3.30;1.12;;;14.40;99.90;;;14.88;100.00;95236.00;2271207;53;26534;-51
2021/07/11 07:00:30;;;;;;;1.20;1.08;;;14.40;99.90;;;14.96;100.00;95244.00;2270576;53;26106;-51
2021/07/11 07:03:17;;;;;;;3.03;1.25;;;14.50;99.90;;;14.99;100.00;95250.00;2270271;55;27109;-51
2021/07/11 07:06:06;;;;;;;1.87;1.20;;;14.50;99.90;;;15.09;100.00;95253.00;2271360;55;26704;-51
2021/07/11 07:08:52;;;;;;;1.00;0.90;;;14.60;99.90;;;15.07;100.00;95252.00;2271730;53;26613;-51
2021/07/11 07:11:39;;;;;;;2.50;1.10;;;14.60;99.90;;;15.08;100.00;95250.00;2270295;53;27058;-52
2021/07/11 07:14:25;;;;;;;2.22;1.10;;;14.60;99.90;;;15.10;100.00;95254.00;2269999;53;27219;-51
2021/07/11 07:20:11;;;;;;;3.12;1.20;;;14.60;99.90;;;15.50;100.00;95228.00;2454468;53;33981;-50
2021/07/11 07:22:57;;;;;;;2.08;1.35;;;14.70;99.90;;;15.24;100.00;95249.00;2208287;55;26630;-52
2021/07/11 07:25:44;;;;;;;2.10;1.20;;;14.80;99.90;;;15.29;100.00;95242.00;2213838;55;27027;-51
2021/07/11 07:28:30;;;;;;;1.48;1.20;;;14.70;99.90;;;15.22;100.00;95252.00;2435536;55;26655;-51
2021/07/11 07:31:17;;;;;;;1.27;1.10;;;14.70;99.90;;;15.28;100.00;95251.00;2213700;55;26670;-51
2021/07/11 07:37:00;;;;;;;1.65;1.25;;;14.80;99.90;;;15.34;100.00;95226.00;2455284;53;33739;-51
2021/07/11 07:39:46;;;;;;;1.98;1.77;;;14.90;99.90;;;15.40;100.00;95245.00;2212180;55;26696;-51
2021/07/11 07:42:33;;;;;;;3.15;2.80;;;14.90;99.90;;;15.49;100.00;95237.00;2435055;55;26997;-53
2021/07/11 07:48:17;;;;;;;2.03;1.62;;;15.10;99.90;;;15.84;100.00;95228.00;2435849;53;33295;-51
2021/07/11 07:51:04;;;;;;;2.15;1.40;;;15.40;99.90;;;16.11;100.00;95254.00;2225443;55;26909;-52
2021/07/11 07:53:50;;;;;;;1.65;1.45;;;15.70;99.90;;;16.41;100.00;95253.00;2472568;54;26879;-52
2021/07/11 07:59:33;;;;;;;2.65;1.30;;;16.00;99.90;;;16.78;100.00;95222.00;2362006;56;33838;-52
2021/07/11 08:02:19;;;;;;;1.60;1.50;;;16.30;99.90;;;17.11;100.00;95242.00;2139773;57;27297;-52
2021/07/11 08:05:10;;;;;;;3.67;1.40;;;16.50;99.90;;;17.14;100.00;95235.00;2344692;57;26994;-52
2021/07/11 08:07:56;;;;;;;1.70;1.60;;;16.60;99.90;;;17.34;100.00;95230.00;2153318;57;26644;-52
2021/07/11 08:10:42;;;;;;;1.48;1.00;;;16.80;99.90;;;17.52;100.00;95229.00;2376310;56;26666;-52
2021/07/11 08:16:26;;;;;;;2.35;1.83;;;17.00;99.90;;;18.25;100.00;95215.00;2445874;54;33723;-52
2021/07/11 08:19:13;;;;;;;1.10;1.00;;;17.60;99.90;;;18.62;100.00;95204.00;2215176;55;26612;-52
2021/07/11 08:21:59;;;;;;;1.37;0.98;;;18.40;99.90;;;19.79;100.00;95207.00;2409124;55;26148;-52
2021/07/11 08:24:46;;;;;;;0.93;0.90;;;18.70;99.90;;;20.18;100.00;95225.00;2190506;55;26717;-52
2021/07/11 08:27:32;;;;;;;2.53;2.33;;;18.70;99.90;;;19.70;100.00;95201.00;2409395;55;27184;-52
2021/07/11 08:30:21;;;;;;;2.30;1.87;;;18.50;99.90;;;19.37;100.00;95200.00;2190745;55;26709;-52
2021/07/11 08:33:08;;;;;;;2.58;0.90;;;18.30;99.90;;;19.05;100.00;95213.00;2411307;55;26233;-52
2021/07/11 08:35:55;;;;;;;3.90;0.90;;;18.30;99.90;;;18.89;100.00;95201.00;2196554;56;27097;-52
2021/07/11 08:38:41;;;;;;;0.80;0.70;;;18.30;99.90;;;18.95;100.00;95202.00;2195481;56;27019;-52
2021/07/11 08:41:28;;;;;;;1.00;0.90;;;18.10;99.90;;;18.89;100.00;95203.00;2434305;54;27228;-52
2021/07/11 08:44:14;;;;;;;1.35;0.88;;;18.30;99.90;;;19.38;100.00;95210.00;2211912;56;26948;-52
2021/07/11 08:47:01;;;;;;;0.75;0.75;;;18.90;99.90;;;20.26;100.00;95202.00;2434218;54;26106;-52
2021/07/11 08:49:48;;;;;;;0.80;0.70;;;19.30;99.90;;;20.48;100.00;95209.00;2210769;56;26754;-52
2021/07/11 08:52:36;;;;;;;2.30;0.70;;;19.80;99.90;;;21.16;100.00;95201.00;2433065;54;27200;-52
2021/07/11 08:58:19;;;;;;;1.12;0.70;;;20.00;99.90;;;22.34;100.00;95193.00;2476145;53;33872;-53
2021/07/11 09:01:05;;;;;;;0.90;0.80;;;22.50;99.90;;;24.82;100.00;95187.00;2238130;55;27175;-53
2021/07/11 09:07:00;;;;;;;0.90;0.80;;;24.40;99.90;;;27.58;100.00;95182.00;2464058;54;33633;-51
2021/07/11 09:09:52;;;;;;;1.33;1.00;;;25.60;99.90;;;28.63;100.00;95183.00;2217594;55;26828;-51
2021/07/11 09:12:53;;;;;;;3.15;1.00;;;25.20;99.90;;;27.51;100.00;95190.00;2469529;54;26834;-51
2021/07/11 09:15:44;;;;;;;1.00;0.90;;;24.20;99.90;;;25.30;100.00;95192.00;2469814;54;26633;-50
2021/07/11 09:18:33;;;;;;;1.33;1.10;;;23.70;99.90;;;25.26;100.00;95196.00;2240500;55;25138;-52
2021/07/11 09:24:18;;;;;;;1.08;0.98;;;26.50;99.90;;;29.96;100.00;95193.00;2461311;54;32727;-51
2021/07/11 09:30:10;;;;;;;1.35;1.00;;;27.80;99.90;;;31.25;100.00;95196.00;2394211;55;34053;-53
2021/07/11 09:32:56;;;;;;;1.40;1.10;;;28.30;99.90;;;30.83;100.00;95196.00;2408785;55;26859;-53
2021/07/11 09:35:43;;;;;;;4.28;1.40;;;27.90;99.90;;;30.05;100.00;95188.00;2189672;56;26573;-53
2021/07/11 09:38:30;;;;;;;1.62;1.10;;;28.00;99.90;;;30.29;88.79;95194.00;2188858;55;26765;-52
2021/07/11 09:41:22;;;;;;;1.70;1.20;;;26.50;99.90;;;26.89;100.00;95193.00;2409129;55;25629;-51
2021/07/11 09:44:09;;;;;;;2.67;1.10;;;24.70;99.90;;;24.29;100.00;95193.00;2407851;55;27542;-51
2021/07/11 09:50:10;;;;;;;1.45;1.33;;;23.20;99.90;;;24.71;100.00;95183.00;2422986;55;33755;-52
2021/07/11 09:52:59;;;;;;;1.62;1.12;;;24.60;99.90;;;26.34;100.00;95185.00;2431719;55;26635;-53
2021/07/11 09:58:43;;;;;;;1.30;1.20;;;27.30;99.90;;;30.69;94.41;95184.00;2420121;54;34351;-53
2021/07/11 10:04:26;;;;;;;1.33;1.23;;;28.90;99.90;;;30.15;83.02;95180.00;2396149;55;32281;-52
2021/07/11 10:07:12;;;;;;;1.60;1.30;;;26.60;99.90;;;26.88;100.00;95177.00;2350584;56;26768;-52
2021/07/11 10:09:58;;;;;;;1.40;1.30;;;24.90;99.90;;;24.51;100.00;95173.00;2151071;56;25840;-52
2021/07/11 10:12:46;;;;;;;1.92;1.30;;;23.90;99.90;;;23.58;100.00;95175.00;2138050;57;26757;-52
2021/07/11 10:15:35;;;;;;;1.50;1.20;;;22.50;99.90;;;22.26;100.00;95178.00;2346477;57;26725;-52
2021/07/11 10:18:22;;;;;;;1.95;1.30;;;21.50;99.90;;;21.24;100.00;95179.00;2138308;56;27304;-52
2021/07/11 10:21:10;;;;;;;1.50;1.40;;;20.80;99.90;;;20.99;100.00;95179.00;2344593;57;26681;-51
2021/07/11 10:23:57;;;;;;;1.50;1.37;;;20.40;99.90;;;21.00;100.00;95183.00;2136340;57;26609;-51
2021/07/11 10:29:46;;;;;;;2.40;1.50;;;20.20;99.90;;;20.48;100.00;95179.00;2356146;56;33785;-52
2021/07/11 10:32:34;;;;;;;2.40;2.20;;;20.30;99.90;;;20.92;100.00;95179.00;2159718;56;26711;-51
2021/07/11 10:35:21;;;;;;;1.50;1.40;;;20.60;99.90;;;21.39;100.00;95179.00;2387903;56;26736;-52
2021/07/11 10:38:07;;;;;;;1.35;1.20;;;21.60;99.90;;;22.37;100.00;95181.00;2186160;57;26989;-52
2021/07/11 10:40:54;;;;;;;1.85;1.33;;;23.10;99.90;;;24.69;100.00;95180.00;2404216;56;26852;-51
2021/07/11 10:43:42;;;;;;;1.33;1.17;;;23.40;99.90;;;24.53;100.00;95175.00;2186932;55;27063;-51
2021/07/11 10:46:33;;;;;;;1.40;1.30;;;22.80;99.90;;;23.56;100.00;95172.00;2405689;56;27123;-51
2021/07/11 10:49:22;;;;;;;1.40;1.30;;;22.20;99.90;;;22.68;100.00;95179.00;2204888;55;26861;-51
2021/07/11 10:52:20;;;;;;;2.42;1.30;;;21.90;99.90;;;22.57;100.00;95176.00;2434976;55;26694;-51
2021/07/11 10:55:13;;;;;;;2.17;1.48;;;21.40;99.90;;;21.91;100.00;95179.00;2435670;55;26715;-52
2021/07/11 10:58:11;;;;;;;2.62;1.30;;;21.00;99.90;;;21.96;100.00;95188.00;2212133;56;26849;-54
2021/07/11 11:01:00;;;;;;;2.95;1.60;;;20.80;99.90;;;21.32;100.00;95190.00;2213493;56;26861;-53
2021/07/11 11:03:48;;;;;;;1.35;1.25;;;20.40;99.90;;;20.78;100.00;95187.00;2435355;55;26917;-52
2021/07/11 11:09:42;;;;;;;2.60;1.40;;;20.00;99.90;;;20.36;100.00;95185.00;2409088;54;33864;-52
2021/07/11 11:12:30;;;;;;;3.62;1.58;;;20.00;99.90;;;20.32;100.00;95189.00;2200528;55;27293;-52
2021/07/11 11:15:19;;;;;;;1.92;1.52;;;20.80;99.90;;;21.48;100.00;95191.00;2205586;56;27285;-52
2021/07/11 11:21:26;;;;;;;2.15;1.40;;;23.60;99.90;;;25.00;100.00;95165.00;2452608;54;33495;-52
2021/07/11 11:24:12;;;;;;;2.55;1.50;;;23.30;99.90;;;23.68;100.00;95178.00;2233844;54;27378;-52
2021/07/11 11:26:59;;;;;;;1.50;1.40;;;22.80;99.90;;;23.37;100.00;95177.00;2461898;54;26735;-52
2021/07/11 11:29:45;;;;;;;1.65;1.40;;;23.40;99.90;;;23.93;100.00;95168.00;2233514;54;26775;-52
2021/07/11 11:32:32;;;;;;;1.52;1.42;;;23.70;99.90;;;24.18;100.00;95167.00;2463837;54;26794;-52
2021/07/11 11:38:18;;;;;;;1.30;1.20;;;24.40;99.90;;;24.75;100.00;95160.00;2453722;53;33481;-52
2021/07/11 11:41:13;;;;;;;1.40;1.30;;;24.50;99.90;;;24.82;100.00;95159.00;2230359;55;27707;-52
2021/07/11 11:44:14;;;;;;;1.55;1.37;;;24.70;99.90;;;25.61;100.00;95150.00;2213442;54;26822;-52
2021/07/11 11:47:02;;;;;;;1.67;1.50;;;24.30;99.90;;;24.57;100.00;95144.00;2427112;55;26678;-52
2021/07/11 11:52:47;;;;;;;1.42;1.33;;;23.30;99.90;;;23.35;100.00;95149.00;2396674;55;33749;-52
2021/07/11 11:55:34;;;;;;;1.80;1.40;;;22.80;99.90;;;22.86;100.00;95159.00;2402688;56;27118;-52
2021/07/11 11:58:28;;;;;;;1.55;1.35;;;22.40;99.90;;;23.08;100.00;95160.00;2190058;56;26859;-51
2021/07/11 12:01:17;;;;;;;1.48;1.35;;;22.20;99.90;;;22.59;100.00;95158.00;2197989;56;27621;-52
2021/07/11 12:04:14;;;;;;;1.30;1.20;;;22.30;99.90;;;22.71;100.00;95151.00;2213874;56;26179;-53
2021/07/11 12:07:02;;;;;;;1.52;1.30;;;23.30;99.90;;;24.31;100.00;95151.00;2179471;56;26842;-53
2021/07/11 12:09:48;;;;;;;1.42;1.33;;;23.70;99.90;;;24.16;100.00;95153.00;2381845;56;26853;-52
2021/07/11 12:12:35;;;;;;;2.62;1.33;;;23.40;99.90;;;23.42;100.00;95158.00;2178854;56;26827;-51
2021/07/11 12:15:34;;;;;;;2.53;1.30;;;23.30;99.90;;;23.26;100.00;95145.00;2408836;55;26121;-52
2021/07/11 12:18:20;;;;;;;2.65;1.20;;;23.90;99.90;;;24.57;100.00;95140.00;2190082;56;27039;-52
2021/07/11 12:24:09;;;;;;;1.33;1.23;;;24.10;99.90;;;23.96;100.00;95154.00;2376836;55;33886;-51
2021/07/11 12:27:00;;;;;;;2.58;1.40;;;22.70;99.90;;;22.84;100.00;95153.00;2156679;56;26190;-51
2021/07/11 12:29:46;;;;;;;3.20;1.60;;;21.50;99.90;;;21.28;100.00;95151.00;2161438;57;27549;-51
2021/07/11 12:35:49;;;;;;;1.70;1.30;;;21.10;99.90;;;21.64;100.00;95151.00;2510743;53;34505;-51
2021/07/11 12:38:38;;;;;;;2.72;1.40;;;20.90;99.90;;;21.54;100.00;95155.00;2502547;54;26781;-51
2021/07/11 12:41:31;;;;;;;1.62;1.52;;;20.70;99.90;;;21.18;100.00;95154.00;2247510;54;26600;-51
2021/07/11 12:44:19;;;;;;;1.40;1.30;;;20.70;99.90;;;21.20;100.00;95151.00;2472930;53;27152;-51
2021/07/11 12:47:11;;;;;;;2.67;1.48;;;20.60;99.90;;;21.06;100.00;95150.00;2243648;54;26765;-55
2021/07/11 12:49:58;;;;;;;1.87;1.48;;;20.80;99.90;;;21.53;100.00;95143.00;2251356;53;27275;-51
2021/07/11 12:52:55;;;;;;;2.28;1.60;;;21.30;99.90;;;22.03;100.00;95148.00;2269752;53;27445;-56
2021/07/11 12:58:42;;;;;;;2.25;1.55;;;22.00;99.90;;;22.62;100.00;95150.00;2380011;55;34447;-51
2021/07/11 13:01:29;;;;;;;1.50;1.25;;;21.90;99.90;;;22.22;100.00;95158.00;2185230;56;26117;-51
2021/07/11 13:04:18;;;;;;;1.40;1.20;;;22.20;99.90;;;22.76;100.00;95159.00;2407710;56;27472;-51
2021/07/11 13:07:07;;;;;;;1.55;1.37;;;23.00;99.90;;;23.49;100.00;95156.00;2189338;56;27107;-51
2021/07/11 13:09:55;;;;;;;2.67;1.45;;;23.40;99.90;;;23.59;100.00;95155.00;2408825;56;26769;-51
2021/07/11 13:12:42;;;;;;;1.62;1.20;;;22.60;99.90;;;22.54;100.00;95161.00;2189088;56;26164;-51